sensor_id;sensor_type;location;lat;lon;timestamp;temperature;humidity
39017;DHT22;24784;45.582;5.276;2022-12-29T07:13:13;10.10;99.90
39017;DHT22;24784;45.582;5.276;2022-12-29T07:15:39;10.10;99.90
39017;DHT22;24784;45.582;5.276;2022-12-29T07:18:05;10.10;99.90
39017;DHT22;24784;45.582;5.276;2022-12-29T07:20:31;10.20;99.90
39017;DHT22;24784;45.582;5.276;2022-12-29T07:22:57;10.10;99.90
39017;DHT22;24784;45.582;5.276;2022-12-29T07:25:23;10.10;99.90
39017;DHT22;24784;45.582;5.276;2022-12-29T07:27:49;10.00;99.90
39017;DHT22;24784;45.582;5.276;2022-12-29T07:30:15;10.10;99.90
39017;DHT22;24784;45.582;5.276;2022-12-29T07:32:41;10.20;99.90
39017;DHT22;24784;45.582;5.276;2022-12-29T07:35:07;10.10;99.90
39017;DHT22;24784;45.582;5.276;2022-12-29T07:37:33;10.20;99.90
39017;DHT22;24784;45.582;5.276;2022-12-29T07:40:01;10.10;99.90
39017;DHT22;24784;45.582;5.276;2022-12-29T07:42:26;10.00;99.90
39017;DHT22;24784;45.582;5.276;2022-12-29T07:44:52;9.90;99.90
39017;DHT22;24784;45.582;5.276;2022-12-29T07:47:18;10.00;99.90
39017;DHT22;24784;45.582;5.276;2022-12-29T07:49:44;10.10;99.90
39017;DHT22;24784;45.582;5.276;2022-12-29T07:52:09;10.30;99.90
39017;DHT22;24784;45.582;5.276;2022-12-29T07:54:35;10.10;99.90
39017;DHT22;24784;45.582;5.276;2022-12-29T07:57:02;10.10;99.90
39017;DHT22;24784;45.582;5.276;2022-12-29T07:59:28;10.00;99.90
39017;DHT22;24784;45.582;5.276;2022-12-29T08:01:53;10.00;99.90
39017;DHT22;24784;45.582;5.276;2022-12-29T08:04:19;9.90;99.90
39017;DHT22;24784;45.582;5.276;2022-12-29T08:06:45;9.90;99.90
39017;DHT22;24784;45.582;5.276;2022-12-29T08:09:11;9.90;99.90
39017;DHT22;24784;45.582;5.276;2022-12-29T08:11:37;10.00;99.90
39017;DHT22;24784;45.582;5.276;2022-12-29T08:14:03;10.10;99.90
39017;DHT22;24784;45.582;5.276;2022-12-29T08:16:29;10.00;99.90
39017;DHT22;24784;45.582;5.276;2022-12-29T08:18:56;10.00;99.90
39017;DHT22;24784;45.582;5.276;2022-12-29T08:21:22;10.10;99.90
39017;DHT22;24784;45.582;5.276;2022-12-29T08:23:47;10.10;99.90
39017;DHT22;24784;45.582;5.276;2022-12-29T08:26:13;10.10;99.90
39017;DHT22;24784;45.582;5.276;2022-12-29T08:28:39;10.10;99.90
39017;DHT22;24784;45.582;5.276;2022-12-29T08:31:05;10.20;99.90
39017;DHT22;24784;45.582;5.276;2022-12-29T08:33:33;10.30;99.90
39017;DHT22;24784;45.582;5.276;2022-12-29T08:36:00;10.30;99.90
39017;DHT22;24784;45.582;5.276;2022-12-29T08:38:27;10.40;99.90
39017;DHT22;24784;45.582;5.276;2022-12-29T08:40:54;10.50;99.90
39017;DHT22;24784;45.582;5.276;2022-12-29T08:43:20;10.60;99.90
39017;DHT22;24784;45.582;5.276;2022-12-29T08:45:46;10.60;99.90
39017;DHT22;24784;45.582;5.276;2022-12-29T08:48:11;10.70;99.90
39017;DHT22;24784;45.582;5.276;2022-12-29T08:50:37;10.80;99.90
39017;DHT22;24784;45.582;5.276;2022-12-29T08:53:03;10.90;99.90
39017;DHT22;24784;45.582;5.276;2022-12-29T08:55:29;11.00;99.90
39017;DHT22;24784;45.582;5.276;2022-12-29T08:57:54;11.00;99.90
39017;DHT22;24784;45.582;5.276;2022-12-29T09:00:20;11.00;99.90
39017;DHT22;24784;45.582;5.276;2022-12-29T09:02:47;11.00;99.90
39017;DHT22;24784;45.582;5.276;2022-12-29T09:05:12;11.10;99.90
39017;DHT22;24784;45.582;5.276;2022-12-29T09:07:38;11.10;99.90
39017;DHT22;24784;45.582;5.276;2022-12-29T09:10:04;11.20;99.90
39017;DHT22;24784;45.582;5.276;2022-12-29T09:12:30;11.20;99.90
39017;DHT22;24784;45.582;5.276;2022-12-29T09:14:56;11.20;99.90
39017;DHT22;24784;45.582;5.276;2022-12-29T09:17:21;11.30;99.90
39017;DHT22;24784;45.582;5.276;2022-12-29T09:20:06;11.30;99.90
39017;DHT22;24784;45.582;5.276;2022-12-29T09:22:32;11.30;99.90
39017;DHT22;24784;45.582;5.276;2022-12-29T09:24:58;11.30;99.90
39017;DHT22;24784;45.582;5.276;2022-12-29T09:27:23;11.40;99.90
39017;DHT22;24784;45.582;5.276;2022-12-29T09:29:49;11.50;99.90
39017;DHT22;24784;45.582;5.276;2022-12-29T09:32:15;11.50;99.90
39017;DHT22;24784;45.582;5.276;2022-12-29T09:34:40;11.60;99.90
39017;DHT22;24784;45.582;5.276;2022-12-29T09:37:06;11.60;99.90
39017;DHT22;24784;45.582;5.276;2022-12-29T09:39:32;11.70;99.90
39017;DHT22;24784;45.582;5.276;2022-12-29T09:47:26;11.70;99.90
39017;DHT22;24784;45.582;5.276;2022-12-29T09:55:23;12.00;99.90
39017;DHT22;24784;45.582;5.276;2022-12-29T09:57:56;12.20;99.90
39017;DHT22;24784;45.582;5.276;2022-12-29T10:00:28;12.30;99.90
39017;DHT22;24784;45.582;5.276;2022-12-29T10:03:19;12.50;99.90
39017;DHT22;24784;45.582;5.276;2022-12-29T10:19:53;13.40;99.90
39017;DHT22;24784;45.582;5.276;2022-12-29T10:24:53;13.40;99.90
39017;DHT22;24784;45.582;5.276;2022-12-29T10:27:20;13.50;99.90
39017;DHT22;24784;45.582;5.276;2022-12-29T10:29:55;13.50;99.90
39017;DHT22;24784;45.582;5.276;2022-12-29T10:35:00;13.50;99.90
39017;DHT22;24784;45.582;5.276;2022-12-29T10:40:27;13.60;99.90
39017;DHT22;24784;45.582;5.276;2022-12-29T10:42:56;13.50;99.90
39017;DHT22;24784;45.582;5.276;2022-12-29T10:45:25;13.50;99.90
39017;DHT22;24784;45.582;5.276;2022-12-29T10:48:06;13.50;99.90
39017;DHT22;24784;45.582;5.276;2022-12-29T10:50:34;13.50;99.90
39017;DHT22;24784;45.582;5.276;2022-12-29T10:53:02;13.70;99.90
39017;DHT22;24784;45.582;5.276;2022-12-29T10:55:33;13.80;99.90
39017;DHT22;24784;45.582;5.276;2022-12-29T10:58:04;13.80;99.90
39017;DHT22;24784;45.582;5.276;2022-12-29T11:00:32;13.80;99.90
39017;DHT22;24784;45.582;5.276;2022-12-29T11:06:05;13.60;99.90
39017;DHT22;24784;45.582;5.276;2022-12-29T11:08:46;13.60;99.90
39017;DHT22;24784;45.582;5.276;2022-12-29T11:11:24;13.50;99.90
39017;DHT22;24784;45.582;5.276;2022-12-29T11:13:57;13.50;99.90
39017;DHT22;24784;45.582;5.276;2022-12-29T11:16:33;13.50;99.90
39017;DHT22;24784;45.582;5.276;2022-12-29T11:19:00;13.50;99.90
39017;DHT22;24784;45.582;5.276;2022-12-29T11:21:38;13.40;99.90
39017;DHT22;24784;45.582;5.276;2022-12-29T11:24:25;13.50;99.90
39017;DHT22;24784;45.582;5.276;2022-12-29T11:26:53;13.50;99.90
39017;DHT22;24784;45.582;5.276;2022-12-29T11:29:25;13.40;99.90
39017;DHT22;24784;45.582;5.276;2022-12-29T11:31:53;13.40;99.90
39017;DHT22;24784;45.582;5.276;2022-12-29T11:34:24;13.40;99.90
39017;DHT22;24784;45.582;5.276;2022-12-29T11:36:58;13.40;99.90
39017;DHT22;24784;45.582;5.276;2022-12-29T11:39:32;13.40;99.90
39017;DHT22;24784;45.582;5.276;2022-12-29T11:41:59;13.50;99.90
39017;DHT22;24784;45.582;5.276;2022-12-29T11:44:26;13.50;99.90
39017;DHT22;24784;45.582;5.276;2022-12-29T11:46:53;13.50;99.90
39017;DHT22;24784;45.582;5.276;2022-12-29T11:49:22;13.50;99.90
39017;DHT22;24784;45.582;5.276;2022-12-29T11:51:50;13.50;99.90
39017;DHT22;24784;45.582;5.276;2022-12-29T11:54:30;13.50;99.90
39017;DHT22;24784;45.582;5.276;2022-12-29T11:56:58;13.60;99.90
39017;DHT22;24784;45.582;5.276;2022-12-29T11:59:40;13.50;99.90
39017;DHT22;24784;45.582;5.276;2022-12-29T12:02:34;13.60;99.90
39017;DHT22;24784;45.582;5.276;2022-12-29T12:07:44;13.60;99.90
39017;DHT22;24784;45.582;5.276;2022-12-29T12:10:23;13.60;99.90
39017;DHT22;24784;45.582;5.276;2022-12-29T12:12:56;13.60;99.90
39017;DHT22;24784;45.582;5.276;2022-12-29T12:15:39;13.60;99.90
39017;DHT22;24784;45.582;5.276;2022-12-29T12:18:45;13.60;99.90
39017;DHT22;24784;45.582;5.276;2022-12-29T12:21:54;13.60;99.90
39017;DHT22;24784;45.582;5.276;2022-12-29T12:29:39;13.50;99.90
39017;DHT22;24784;45.582;5.276;2022-12-29T12:32:28;13.50;99.90
39017;DHT22;24784;45.582;5.276;2022-12-29T12:34:55;13.40;99.90
39017;DHT22;24784;45.582;5.276;2022-12-29T12:43:14;13.30;99.90
39017;DHT22;24784;45.582;5.276;2022-12-29T12:45:47;13.30;99.90
39017;DHT22;24784;45.582;5.276;2022-12-29T13:04:38;13.40;99.90
39017;DHT22;24784;45.582;5.276;2022-12-29T13:12:42;13.40;99.90
39017;DHT22;24784;45.582;5.276;2022-12-29T13:23:15;13.40;99.90
39017;DHT22;24784;45.582;5.276;2022-12-29T13:25:50;13.40;99.90
39017;DHT22;24784;45.582;5.276;2022-12-29T13:31:09;13.40;99.90
39017;DHT22;24784;45.582;5.276;2022-12-29T13:33:51;13.40;99.90
39017;DHT22;24784;45.582;5.276;2022-12-29T13:36:24;13.40;99.90
39017;DHT22;24784;45.582;5.276;2022-12-29T13:39:15;13.40;99.90
39017;DHT22;24784;45.582;5.276;2022-12-29T13:41:49;13.40;99.90
39017;DHT22;24784;45.582;5.276;2022-12-29T13:44:25;13.40;99.90
39017;DHT22;24784;45.582;5.276;2022-12-29T13:46:54;13.40;99.90
39017;DHT22;24784;45.582;5.276;2022-12-29T13:49:22;13.40;99.90
39017;DHT22;24784;45.582;5.276;2022-12-29T13:51:56;13.40;99.90
39017;DHT22;24784;45.582;5.276;2022-12-29T13:57:53;13.30;99.90
39017;DHT22;24784;45.582;5.276;2022-12-29T14:00:25;13.20;99.90
39017;DHT22;24784;45.582;5.276;2022-12-29T14:06:19;13.20;99.90
39017;DHT22;24784;45.582;5.276;2022-12-29T14:08:47;13.10;99.90
39017;DHT22;24784;45.582;5.276;2022-12-29T14:11:15;13.10;99.90
39017;DHT22;24784;45.582;5.276;2022-12-29T14:13:44;13.10;99.90
39017;DHT22;24784;45.582;5.276;2022-12-29T14:16:26;13.10;99.90
39017;DHT22;24784;45.582;5.276;2022-12-29T14:18:52;13.00;99.90
39017;DHT22;24784;45.582;5.276;2022-12-29T14:21:21;13.00;99.90
39017;DHT22;24784;45.582;5.276;2022-12-29T14:23:49;12.90;99.90
39017;DHT22;24784;45.582;5.276;2022-12-29T14:26:35;12.90;99.90
39017;DHT22;24784;45.582;5.276;2022-12-29T14:31:47;12.80;99.90
39017;DHT22;24784;45.582;5.276;2022-12-29T14:36:59;12.80;99.90
39017;DHT22;24784;45.582;5.276;2022-12-29T14:39:40;12.70;99.90
39017;DHT22;24784;45.582;5.276;2022-12-29T14:44:52;12.70;99.90
39017;DHT22;24784;45.582;5.276;2022-12-29T14:47:32;12.70;99.90
39017;DHT22;24784;45.582;5.276;2022-12-29T14:57:42;12.60;99.90
39017;DHT22;24784;45.582;5.276;2022-12-29T15:00:24;12.60;99.90
39017;DHT22;24784;45.582;5.276;2022-12-29T15:03:07;12.60;99.90
39017;DHT22;24784;45.582;5.276;2022-12-29T15:05:42;12.50;99.90
39017;DHT22;24784;45.582;5.276;2022-12-29T15:08:11;12.50;99.90
39017;DHT22;24784;45.582;5.276;2022-12-29T15:10:42;12.40;99.90
39017;DHT22;24784;45.582;5.276;2022-12-29T15:13:21;12.40;99.90
39017;DHT22;24784;45.582;5.276;2022-12-29T15:15:47;12.50;99.90
39017;DHT22;24784;45.582;5.276;2022-12-29T15:18:26;12.40;99.90
39017;DHT22;24784;45.582;5.276;2022-12-29T15:20:55;12.40;99.90
39017;DHT22;24784;45.582;5.276;2022-12-29T15:23:23;12.40;99.90
39017;DHT22;24784;45.582;5.276;2022-12-29T15:26:05;12.40;99.90
39017;DHT22;24784;45.582;5.276;2022-12-29T15:28:43;12.40;99.90
39017;DHT22;24784;45.582;5.276;2022-12-29T15:31:14;12.40;99.90
39017;DHT22;24784;45.582;5.276;2022-12-29T15:33:42;12.40;99.90
39017;DHT22;24784;45.582;5.276;2022-12-29T15:36:14;12.40;99.90
39017;DHT22;24784;45.582;5.276;2022-12-29T15:38:44;12.40;99.90
39017;DHT22;24784;45.582;5.276;2022-12-29T15:46:19;12.40;99.90
39017;DHT22;24784;45.582;5.276;2022-12-29T15:48:45;12.40;99.90
39017;DHT22;24784;45.582;5.276;2022-12-29T15:51:20;12.40;99.90
39017;DHT22;24784;45.582;5.276;2022-12-29T15:53:50;12.40;99.90
39017;DHT22;24784;45.582;5.276;2022-12-29T15:56:17;12.40;99.90
39017;DHT22;24784;45.582;5.276;2022-12-29T15:58:51;12.40;99.90
39017;DHT22;24784;45.582;5.276;2022-12-29T16:03:48;12.40;99.90
39017;DHT22;24784;45.582;5.276;2022-12-29T16:09:16;12.30;99.90
39017;DHT22;24784;45.582;5.276;2022-12-29T16:12:03;12.40;99.90
39017;DHT22;24784;45.582;5.276;2022-12-29T16:14:43;12.30;99.90
39017;DHT22;24784;45.582;5.276;2022-12-29T16:17:15;12.30;99.90
39017;DHT22;24784;45.582;5.276;2022-12-29T16:19:48;12.30;99.90
39017;DHT22;24784;45.582;5.276;2022-12-29T16:22:41;12.30;99.90
39017;DHT22;24784;45.582;5.276;2022-12-29T16:25:28;12.30;99.90
39017;DHT22;24784;45.582;5.276;2022-12-29T16:27:57;12.20;99.90
39017;DHT22;24784;45.582;5.276;2022-12-29T16:30:29;12.20;99.90
39017;DHT22;24784;45.582;5.276;2022-12-29T16:33:00;12.20;99.90
39017;DHT22;24784;45.582;5.276;2022-12-29T16:35:44;12.20;99.90
39017;DHT22;24784;45.582;5.276;2022-12-29T16:40:54;12.10;99.90
39017;DHT22;24784;45.582;5.276;2022-12-29T16:43:28;12.10;99.90
39017;DHT22;24784;45.582;5.276;2022-12-29T16:48:33;12.20;99.90
39017;DHT22;24784;45.582;5.276;2022-12-29T16:51:17;12.20;99.90
39017;DHT22;24784;45.582;5.276;2022-12-29T16:53:51;12.20;99.90
39017;DHT22;24784;45.582;5.276;2022-12-29T16:56:19;12.10;99.90
39017;DHT22;24784;45.582;5.276;2022-12-29T16:58:50;12.20;99.90
39017;DHT22;24784;45.582;5.276;2022-12-29T17:01:19;12.20;99.90
39017;DHT22;24784;45.582;5.276;2022-12-29T17:04:00;12.20;99.90
39017;DHT22;24784;45.582;5.276;2022-12-29T17:06:27;12.10;99.90
39017;DHT22;24784;45.582;5.276;2022-12-29T17:08:52;12.00;99.90
39017;DHT22;24784;45.582;5.276;2022-12-29T17:14:32;12.10;99.90
39017;DHT22;24784;45.582;5.276;2022-12-29T17:16:59;12.10;99.90
39017;DHT22;24784;45.582;5.276;2022-12-29T17:19:36;12.10;99.90
39017;DHT22;24784;45.582;5.276;2022-12-29T17:22:12;12.10;99.90
39017;DHT22;24784;45.582;5.276;2022-12-29T17:24:38;12.00;99.90
39017;DHT22;24784;45.582;5.276;2022-12-29T17:27:04;12.10;99.90
39017;DHT22;24784;45.582;5.276;2022-12-29T17:29:38;12.00;99.90
39017;DHT22;24784;45.582;5.276;2022-12-29T17:32:09;11.90;99.90
39017;DHT22;24784;45.582;5.276;2022-12-29T17:34:38;11.80;99.90
39017;DHT22;24784;45.582;5.276;2022-12-29T17:39:53;11.60;99.90
39017;DHT22;24784;45.582;5.276;2022-12-29T17:42:19;11.40;99.90
39017;DHT22;24784;45.582;5.276;2022-12-29T17:44:45;11.20;99.90
39017;DHT22;24784;45.582;5.276;2022-12-29T17:47:14;11.10;99.90
39017;DHT22;24784;45.582;5.276;2022-12-29T17:49:41;10.90;99.90
39017;DHT22;24784;45.582;5.276;2022-12-29T17:52:11;10.90;99.90
39017;DHT22;24784;45.582;5.276;2022-12-29T17:54:45;10.90;99.90
39017;DHT22;24784;45.582;5.276;2022-12-29T17:57:14;10.80;99.90
39017;DHT22;24784;45.582;5.276;2022-12-29T17:59:41;10.70;99.90
39017;DHT22;24784;45.582;5.276;2022-12-29T18:02:33;10.60;99.90
39017;DHT22;24784;45.582;5.276;2022-12-29T18:04:59;10.40;99.90
39017;DHT22;24784;45.582;5.276;2022-12-29T18:07:27;10.30;99.90
39017;DHT22;24784;45.582;5.276;2022-12-29T18:09:54;10.30;99.90
39017;DHT22;24784;45.582;5.276;2022-12-29T18:12:34;10.40;99.90
39017;DHT22;24784;45.582;5.276;2022-12-29T18:15:02;10.20;99.90
39017;DHT22;24784;45.582;5.276;2022-12-29T18:17:28;10.20;99.90
39017;DHT22;24784;45.582;5.276;2022-12-29T18:19:55;10.10;99.90
39017;DHT22;24784;45.582;5.276;2022-12-29T18:22:23;10.20;99.90
39017;DHT22;24784;45.582;5.276;2022-12-29T18:24:49;10.10;99.90
39017;DHT22;24784;45.582;5.276;2022-12-29T18:27:16;10.10;99.90
39017;DHT22;24784;45.582;5.276;2022-12-29T18:29:44;10.00;99.90
39017;DHT22;24784;45.582;5.276;2022-12-29T18:32:14;10.00;99.90
39017;DHT22;24784;45.582;5.276;2022-12-29T18:34:40;10.00;99.90
39017;DHT22;24784;45.582;5.276;2022-12-29T18:37:07;10.00;99.90
39017;DHT22;24784;45.582;5.276;2022-12-29T18:39:33;9.90;99.90
39017;DHT22;24784;45.582;5.276;2022-12-29T18:41:58;9.90;99.90
39017;DHT22;24784;45.582;5.276;2022-12-29T18:44:24;9.80;99.90
39017;DHT22;24784;45.582;5.276;2022-12-29T18:46:50;9.70;99.90
39017;DHT22;24784;45.582;5.276;2022-12-29T18:49:16;9.70;99.90
39017;DHT22;24784;45.582;5.276;2022-12-29T18:51:42;9.70;99.90
39017;DHT22;24784;45.582;5.276;2022-12-29T18:54:21;9.70;99.90
39017;DHT22;24784;45.582;5.276;2022-12-29T18:56:48;9.60;99.90
39017;DHT22;24784;45.582;5.276;2022-12-29T18:59:14;9.50;99.90
39017;DHT22;24784;45.582;5.276;2022-12-29T19:01:39;9.50;99.90
39017;DHT22;24784;45.582;5.276;2022-12-29T19:04:05;9.50;99.90
39017;DHT22;24784;45.582;5.276;2022-12-29T19:06:31;9.50;99.90
39017;DHT22;24784;45.582;5.276;2022-12-29T19:08:56;9.60;99.90
39017;DHT22;24784;45.582;5.276;2022-12-29T19:11:22;9.50;99.90
39017;DHT22;24784;45.582;5.276;2022-12-29T19:13:48;9.50;99.90
39017;DHT22;24784;45.582;5.276;2022-12-29T19:16:19;9.50;99.90
39017;DHT22;24784;45.582;5.276;2022-12-29T19:18:45;9.60;99.90
39017;DHT22;24784;45.582;5.276;2022-12-29T19:21:11;9.60;99.90
39017;DHT22;24784;45.582;5.276;2022-12-29T19:23:37;9.60;99.90
39017;DHT22;24784;45.582;5.276;2022-12-29T19:26:03;9.50;99.90
39017;DHT22;24784;45.582;5.276;2022-12-29T19:28:29;9.60;99.90
39017;DHT22;24784;45.582;5.276;2022-12-29T19:30:58;9.60;99.90
39017;DHT22;24784;45.582;5.276;2022-12-29T19:33:24;9.60;99.90
39017;DHT22;24784;45.582;5.276;2022-12-29T19:35:51;9.50;99.90
39017;DHT22;24784;45.582;5.276;2022-12-29T19:38:17;9.50;99.90
39017;DHT22;24784;45.582;5.276;2022-12-29T19:40:44;9.50;99.90
39017;DHT22;24784;45.582;5.276;2022-12-29T19:43:12;9.40;99.90
39017;DHT22;24784;45.582;5.276;2022-12-29T19:45:42;9.50;99.90
39017;DHT22;24784;45.582;5.276;2022-12-29T19:48:16;9.50;99.90
39017;DHT22;24784;45.582;5.276;2022-12-29T19:50:42;9.50;99.90
39017;DHT22;24784;45.582;5.276;2022-12-29T19:53:08;9.50;99.90
39017;DHT22;24784;45.582;5.276;2022-12-29T19:55:34;9.50;99.90
39017;DHT22;24784;45.582;5.276;2022-12-29T19:58:00;9.50;99.90
39017;DHT22;24784;45.582;5.276;2022-12-29T20:00:25;9.50;99.90
39017;DHT22;24784;45.582;5.276;2022-12-29T20:02:51;9.50;99.90
39017;DHT22;24784;45.582;5.276;2022-12-29T20:05:17;9.50;99.90
39017;DHT22;24784;45.582;5.276;2022-12-29T20:07:44;9.50;99.90
39017;DHT22;24784;45.582;5.276;2022-12-29T20:10:09;9.50;99.90
39017;DHT22;24784;45.582;5.276;2022-12-29T20:12:36;9.50;99.90
39017;DHT22;24784;45.582;5.276;2022-12-29T20:15:07;9.50;99.90
39017;DHT22;24784;45.582;5.276;2022-12-29T20:17:33;9.50;99.90
39017;DHT22;24784;45.582;5.276;2022-12-29T20:19:59;9.50;99.90
39017;DHT22;24784;45.582;5.276;2022-12-29T20:22:25;9.50;99.90
39017;DHT22;24784;45.582;5.276;2022-12-29T20:24:50;9.50;99.90
39017;DHT22;24784;45.582;5.276;2022-12-29T20:27:17;9.50;99.90
39017;DHT22;24784;45.582;5.276;2022-12-29T20:29:43;9.50;99.90
39017;DHT22;24784;45.582;5.276;2022-12-29T20:32:22;9.50;99.90
39017;DHT22;24784;45.582;5.276;2022-12-29T20:34:50;9.40;99.90
39017;DHT22;24784;45.582;5.276;2022-12-29T20:37:17;9.30;99.90
39017;DHT22;24784;45.582;5.276;2022-12-29T20:39:43;9.40;99.90
39017;DHT22;24784;45.582;5.276;2022-12-29T20:42:10;9.40;99.90
39017;DHT22;24784;45.582;5.276;2022-12-29T20:44:36;9.50;99.90
39017;DHT22;24784;45.582;5.276;2022-12-29T20:47:02;9.50;99.90
39017;DHT22;24784;45.582;5.276;2022-12-29T20:49:30;9.50;99.90
39017;DHT22;24784;45.582;5.276;2022-12-29T20:51:56;9.50;99.90
39017;DHT22;24784;45.582;5.276;2022-12-29T20:54:22;9.40;99.90
39017;DHT22;24784;45.582;5.276;2022-12-29T20:56:49;9.50;99.90
39017;DHT22;24784;45.582;5.276;2022-12-29T20:59:15;9.50;99.90
39017;DHT22;24784;45.582;5.276;2022-12-29T21:01:41;9.50;99.90
39017;DHT22;24784;45.582;5.276;2022-12-29T21:04:07;9.40;99.90
39017;DHT22;24784;45.582;5.276;2022-12-29T21:06:33;9.40;99.90
39017;DHT22;24784;45.582;5.276;2022-12-29T21:08:59;9.40;99.90
39017;DHT22;24784;45.582;5.276;2022-12-29T21:11:26;9.40;99.90
39017;DHT22;24784;45.582;5.276;2022-12-29T21:13:52;9.40;99.90
39017;DHT22;24784;45.582;5.276;2022-12-29T21:16:18;9.40;99.90
39017;DHT22;24784;45.582;5.276;2022-12-29T21:18:48;9.30;99.90
39017;DHT22;24784;45.582;5.276;2022-12-29T21:21:22;9.40;99.90
39017;DHT22;24784;45.582;5.276;2022-12-29T21:23:49;9.40;99.90
39017;DHT22;24784;45.582;5.276;2022-12-29T21:26:18;9.30;99.90
39017;DHT22;24784;45.582;5.276;2022-12-29T21:28:44;9.30;99.90
39017;DHT22;24784;45.582;5.276;2022-12-29T21:31:24;9.40;99.90
39017;DHT22;24784;45.582;5.276;2022-12-29T21:33:50;9.30;99.90
39017;DHT22;24784;45.582;5.276;2022-12-29T21:36:16;9.40;99.90
39017;DHT22;24784;45.582;5.276;2022-12-29T21:38:42;9.40;99.90
39017;DHT22;24784;45.582;5.276;2022-12-29T21:41:13;9.30;99.90
39017;DHT22;24784;45.582;5.276;2022-12-29T21:43:40;9.30;99.90
39017;DHT22;24784;45.582;5.276;2022-12-29T21:46:06;9.20;99.90
39017;DHT22;24784;45.582;5.276;2022-12-29T21:48:32;9.30;99.90
39017;DHT22;24784;45.582;5.276;2022-12-29T21:51:06;9.20;99.90
39017;DHT22;24784;45.582;5.276;2022-12-29T21:53:56;9.20;99.90
39017;DHT22;24784;45.582;5.276;2022-12-29T23:10:39;9.60;99.90
39017;DHT22;24784;45.582;5.276;2022-12-29T23:13:05;9.60;99.90
39017;DHT22;24784;45.582;5.276;2022-12-29T23:15:31;9.50;99.90
39017;DHT22;24784;45.582;5.276;2022-12-29T23:17:56;9.50;99.90
39017;DHT22;24784;45.582;5.276;2022-12-29T23:20:22;9.40;99.90
39017;DHT22;24784;45.582;5.276;2022-12-29T23:22:48;9.30;99.90
39017;DHT22;24784;45.582;5.276;2022-12-29T23:25:14;9.20;99.90
39017;DHT22;24784;45.582;5.276;2022-12-29T23:27:39;9.20;99.90
39017;DHT22;24784;45.582;5.276;2022-12-29T23:30:05;9.20;99.90
39017;DHT22;24784;45.582;5.276;2022-12-29T23:32:31;9.10;99.90
39017;DHT22;24784;45.582;5.276;2022-12-29T23:34:57;9.10;99.90
39017;DHT22;24784;45.582;5.276;2022-12-29T23:37:23;9.20;99.90
39017;DHT22;24784;45.582;5.276;2022-12-29T23:39:48;9.20;99.90
39017;DHT22;24784;45.582;5.276;2022-12-29T23:42:14;9.20;99.90
39017;DHT22;24784;45.582;5.276;2022-12-29T23:44:40;9.20;99.90
39017;DHT22;24784;45.582;5.276;2022-12-29T23:47:06;9.20;99.90
39017;DHT22;24784;45.582;5.276;2022-12-29T23:49:31;9.20;99.90
39017;DHT22;24784;45.582;5.276;2022-12-29T23:51:57;9.30;99.90
39017;DHT22;24784;45.582;5.276;2022-12-29T23:54:23;9.10;99.90
39017;DHT22;24784;45.582;5.276;2022-12-29T23:56:49;9.20;99.90
39017;DHT22;24784;45.582;5.276;2022-12-29T23:59:15;9.10;99.90
